createdAt,value
2023-05-19T00:00:28.685Z,1.70
2023-05-19T00:04:12.506Z,1.45
2023-05-19T00:07:59.732Z,1.70
2023-05-19T00:11:42.029Z,1.70
2023-05-19T00:15:24.315Z,1.70
2023-05-19T00:19:10.368Z,1.35
2023-05-19T00:22:52.700Z,1.40
2023-05-19T00:26:34.664Z,1.60
2023-05-19T00:30:16.801Z,1.73
2023-05-19T00:33:58.840Z,2.10
2023-05-19T00:37:41.060Z,2.05
2023-05-19T00:41:23.317Z,1.75
2023-05-19T00:45:06.055Z,1.65
2023-05-19T00:48:48.034Z,1.55
2023-05-19T00:52:30.043Z,1.48
2023-05-19T00:56:12.072Z,1.52
2023-05-19T00:59:54.252Z,1.60
2023-05-19T01:03:36.673Z,1.55
2023-05-19T01:07:20.012Z,1.58
2023-05-19T01:11:02.045Z,2.20
2023-05-19T01:14:44.930Z,1.75
2023-05-19T01:18:38.274Z,2.10
2023-05-19T01:22:42.941Z,1.95
2023-05-19T01:26:36.158Z,2.00
2023-05-19T01:30:28.847Z,1.90
2023-05-19T01:34:13.342Z,1.70
2023-05-19T01:37:58.818Z,1.75
2023-05-19T01:41:45.905Z,1.83
2023-05-19T01:45:33.157Z,1.88
2023-05-19T01:49:15.203Z,1.63
2023-05-19T01:52:57.297Z,2.13
2023-05-19T01:56:46.664Z,1.92
2023-05-19T02:00:46.969Z,1.63
2023-05-19T02:04:50.392Z,1.77
2023-05-19T02:08:41.062Z,1.92
2023-05-19T02:12:34.518Z,1.92
2023-05-19T02:16:17.742Z,1.90
2023-05-19T02:19:59.821Z,1.90
2023-05-19T02:23:44.854Z,2.00
2023-05-19T02:27:27.162Z,2.08
2023-05-19T02:31:10.262Z,1.85
2023-05-19T02:34:53.405Z,2.10
2023-05-19T02:38:36.349Z,1.55
2023-05-19T02:42:18.433Z,1.65
2023-05-19T02:46:00.595Z,2.30
2023-05-19T02:49:44.266Z,1.70
2023-05-19T02:53:26.296Z,1.80
2023-05-19T02:57:08.483Z,2.00
2023-05-19T03:00:51.510Z,2.05
2023-05-19T03:04:33.554Z,1.88
2023-05-19T03:08:15.559Z,2.17
2023-05-19T03:11:57.590Z,1.77
2023-05-19T03:15:39.599Z,1.92
2023-05-19T03:19:21.890Z,1.90
2023-05-19T03:23:04.138Z,2.20
2023-05-19T03:26:46.573Z,2.17
2023-05-19T03:30:28.615Z,1.90
2023-05-19T03:34:10.632Z,2.38
2023-05-19T03:37:52.591Z,2.10
2023-05-19T03:41:34.576Z,2.28
2023-05-19T03:45:16.665Z,2.10
2023-05-19T03:48:58.627Z,2.25
2023-05-19T03:52:45.539Z,2.15
2023-05-19T03:56:27.885Z,2.33
2023-05-19T04:00:13.772Z,2.25
2023-05-19T04:03:55.895Z,2.27
2023-05-19T04:07:38.261Z,2.40
2023-05-19T04:11:20.409Z,2.75
2023-05-19T04:15:02.398Z,2.13
2023-05-19T04:18:46.467Z,2.10
2023-05-19T04:22:28.616Z,2.75
2023-05-19T04:26:10.674Z,2.40
2023-05-19T04:29:52.778Z,1.95
2023-05-19T04:33:34.752Z,2.08
2023-05-19T04:37:16.859Z,2.40
2023-05-19T04:41:01.715Z,2.08
2023-05-19T04:44:43.690Z,2.55
2023-05-19T04:48:28.679Z,2.17
2023-05-19T04:52:11.772Z,2.40
2023-05-19T04:55:53.764Z,2.38
2023-05-19T04:59:36.135Z,2.60
2023-05-19T05:03:18.596Z,2.35
2023-05-19T05:07:00.756Z,2.42
2023-05-19T05:10:42.940Z,2.60
2023-05-19T05:14:25.354Z,2.55
2023-05-19T05:18:07.757Z,2.88
2023-05-19T05:21:50.020Z,2.28
2023-05-19T05:25:32.496Z,2.25
2023-05-19T05:29:14.665Z,2.55
2023-05-19T05:32:57.105Z,2.30
2023-05-19T05:36:39.123Z,2.15
2023-05-19T05:40:21.332Z,2.33
2023-05-19T05:44:03.622Z,2.35
2023-05-19T05:47:45.919Z,2.30
2023-05-19T05:51:28.268Z,1.95
2023-05-19T05:55:11.120Z,2.53
2023-05-19T05:58:53.833Z,2.30
2023-05-19T06:02:37.044Z,2.50
2023-05-19T06:06:19.134Z,2.47
2023-05-19T06:10:01.130Z,2.38
2023-05-19T06:13:43.119Z,2.63
2023-05-19T06:17:25.151Z,2.55
2023-05-19T06:21:07.310Z,2.40
2023-05-19T06:24:49.358Z,2.40
2023-05-19T06:28:31.748Z,2.50
2023-05-19T06:32:13.753Z,2.60
2023-05-19T06:35:55.762Z,2.65
2023-05-19T06:39:38.562Z,2.70
2023-05-19T06:43:20.597Z,2.53
2023-05-19T06:47:02.644Z,2.55
2023-05-19T06:50:44.689Z,2.33
2023-05-19T06:54:26.767Z,2.33
2023-05-19T06:58:08.802Z,2.45
2023-05-19T07:01:50.871Z,2.33
2023-05-19T07:05:32.980Z,2.15
2023-05-19T07:09:14.934Z,2.30
2023-05-19T07:12:58.382Z,2.20
2023-05-19T07:16:40.460Z,2.30
2023-05-19T07:20:22.558Z,2.60
2023-05-19T07:24:04.693Z,2.20
2023-05-19T07:27:46.695Z,2.65
2023-05-19T07:31:28.706Z,2.75
2023-05-19T07:35:10.850Z,2.22
2023-05-19T07:38:52.941Z,2.42
2023-05-19T07:42:35.120Z,2.47
2023-05-19T07:46:17.239Z,2.92
2023-05-19T07:49:59.290Z,2.92
2023-05-19T07:53:41.276Z,2.70
2023-05-19T07:57:23.256Z,2.30
2023-05-19T08:01:05.330Z,2.55
2023-05-19T08:04:48.915Z,2.65
2023-05-19T08:12:15.351Z,2.75
2023-05-19T08:15:59.996Z,2.80
2023-05-19T08:19:42.098Z,2.33
2023-05-19T08:23:24.045Z,2.75
2023-05-19T08:27:06.809Z,2.80
2023-05-19T08:30:50.340Z,3.13
2023-05-19T08:34:32.351Z,3.00
2023-05-19T08:38:14.317Z,2.85
2023-05-19T08:41:56.637Z,3.20
2023-05-19T08:45:43.101Z,3.00
2023-05-19T08:53:33.881Z,3.10
2023-05-19T08:57:17.265Z,3.17
2023-05-19T09:01:01.078Z,3.08
2023-05-19T09:04:46.170Z,2.88
2023-05-19T09:08:29.340Z,3.30
2023-05-19T09:12:11.807Z,3.10
2023-05-19T09:15:56.320Z,2.85
2023-05-19T09:19:44.018Z,2.90
2023-05-19T09:23:31.860Z,2.53
2023-05-19T09:27:23.604Z,2.67
2023-05-19T09:31:07.861Z,2.70
2023-05-19T09:34:51.120Z,2.80
2023-05-19T09:38:33.317Z,2.30
2023-05-19T09:42:15.358Z,2.90
2023-05-19T09:46:01.818Z,2.72
2023-05-19T09:49:47.736Z,2.97
2023-05-19T09:53:32.720Z,2.53
2023-05-19T09:57:14.719Z,2.80
2023-05-19T10:00:57.226Z,2.60
2023-05-19T10:04:39.673Z,2.50
2023-05-19T10:08:24.226Z,2.20
2023-05-19T10:12:07.717Z,3.20
2023-05-19T10:15:57.981Z,2.50
2023-05-19T10:19:43.879Z,2.50
2023-05-19T10:23:26.320Z,2.57
2023-05-19T10:27:14.757Z,2.50
2023-05-19T10:31:00.521Z,2.40
2023-05-19T10:35:10.334Z,2.38
2023-05-19T10:39:06.552Z,2.78
2023-05-19T10:43:07.454Z,2.42
2023-05-19T10:46:49.566Z,2.70
2023-05-19T10:50:40.298Z,2.72
2023-05-19T10:54:41.055Z,2.30
2023-05-19T10:58:44.301Z,2.47
2023-05-19T11:02:37.926Z,2.80
2023-05-19T11:06:26.387Z,2.63
2023-05-19T11:10:08.764Z,2.53
2023-05-19T11:13:57.012Z,3.28
2023-05-19T11:17:41.494Z,2.80
2023-05-19T11:21:23.701Z,3.05
2023-05-19T11:25:06.993Z,3.00
2023-05-19T11:28:49.216Z,2.60
2023-05-19T11:32:35.933Z,2.80
2023-05-19T11:36:19.027Z,2.35
2023-05-19T11:40:07.294Z,2.53
2023-05-19T11:43:49.377Z,2.95
2023-05-19T11:47:42.493Z,2.58
2023-05-19T11:51:33.970Z,3.10
2023-05-19T11:55:22.253Z,3.20
2023-05-19T11:59:04.314Z,2.83
2023-05-19T12:02:46.423Z,2.90
2023-05-19T12:06:29.835Z,2.83
2023-05-19T12:10:12.675Z,3.00
2023-05-19T12:14:03.807Z,2.92
2023-05-19T12:17:46.691Z,2.75
2023-05-19T12:21:34.303Z,2.75
2023-05-19T12:25:17.384Z,2.42
2023-05-19T12:28:59.432Z,2.45
2023-05-19T12:32:41.529Z,2.38
2023-05-19T12:36:25.247Z,2.85
2023-05-19T12:40:08.001Z,2.60
2023-05-19T12:43:50.973Z,2.63
2023-05-19T12:47:35.036Z,2.47
2023-05-19T12:51:21.045Z,2.42
2023-05-19T12:55:07.183Z,2.70
2023-05-19T12:58:54.747Z,2.70
2023-05-19T13:02:54.830Z,2.80
2023-05-19T13:06:36.927Z,2.58
2023-05-19T13:10:19.163Z,2.90
2023-05-19T13:14:01.147Z,2.70
2023-05-19T13:17:43.120Z,2.75
2023-05-19T13:21:25.166Z,2.20
2023-05-19T13:25:07.729Z,2.00
2023-05-19T13:28:49.802Z,2.50
2023-05-19T13:32:32.029Z,2.50
2023-05-19T13:36:14.085Z,2.60
2023-05-19T13:39:58.629Z,2.70
2023-05-19T13:43:40.668Z,2.95
2023-05-19T13:47:24.120Z,2.85
2023-05-19T13:51:06.274Z,3.60
2023-05-19T13:54:49.044Z,3.05
2023-05-19T13:58:31.028Z,2.90
2023-05-19T14:02:13.004Z,2.58
2023-05-19T14:05:54.991Z,2.50
2023-05-19T14:09:37.025Z,2.55
2023-05-19T14:13:32.568Z,2.17
2023-05-19T14:17:17.361Z,2.58
2023-05-19T14:20:59.341Z,2.40
2023-05-19T14:24:41.678Z,2.40
2023-05-19T14:28:23.697Z,2.13
2023-05-19T14:32:06.656Z,2.25
2023-05-19T14:35:48.998Z,2.00
2023-05-19T14:39:31.428Z,2.20
2023-05-19T14:43:13.455Z,2.17
2023-05-19T14:46:55.458Z,1.80
2023-05-19T14:50:37.771Z,1.98
2023-05-19T14:54:19.718Z,1.60
2023-05-19T14:58:01.988Z,1.90
2023-05-19T15:01:45.524Z,1.90
2023-05-19T15:05:27.698Z,2.10
2023-05-19T15:09:10.820Z,1.88
2023-05-19T15:12:53.738Z,2.70
2023-05-19T15:16:35.796Z,2.78
2023-05-19T15:20:17.894Z,2.47
2023-05-19T15:24:01.142Z,3.13
2023-05-19T15:27:43.131Z,2.63
2023-05-19T15:31:25.222Z,2.60
2023-05-19T15:35:07.922Z,2.50
2023-05-19T15:38:49.904Z,2.38
2023-05-19T15:42:31.902Z,2.70
2023-05-19T15:46:16.039Z,2.38
2023-05-19T15:49:58.388Z,2.38
2023-05-19T15:53:40.485Z,2.80
2023-05-19T15:57:22.479Z,3.20
2023-05-19T16:01:04.869Z,3.00
2023-05-19T16:04:46.885Z,3.33
2023-05-19T16:08:31.958Z,3.00
2023-05-19T16:12:13.992Z,3.40
2023-05-19T16:15:56.178Z,4.22
2023-05-19T16:19:38.516Z,3.80
2023-05-19T16:23:20.528Z,3.70
2023-05-19T16:27:02.614Z,3.33
2023-05-19T16:30:46.885Z,3.45
2023-05-19T16:34:30.687Z,3.35
2023-05-19T16:38:12.782Z,2.88
2023-05-19T16:41:54.776Z,3.28
2023-05-19T16:45:37.031Z,2.80
2023-05-19T16:49:19.099Z,3.00
2023-05-19T16:53:01.148Z,3.10
2023-05-19T16:56:43.203Z,3.10
2023-05-19T17:00:25.804Z,2.88
2023-05-19T17:04:08.266Z,2.80
2023-05-19T17:07:50.316Z,2.75
2023-05-19T17:11:32.445Z,3.20
2023-05-19T17:15:15.472Z,3.28
2023-05-19T17:18:57.565Z,3.30
2023-05-19T17:22:39.627Z,2.90
2023-05-19T17:26:22.176Z,2.70
2023-05-19T17:30:04.622Z,3.17
2023-05-19T17:33:46.611Z,2.60
2023-05-19T17:37:28.985Z,2.60
2023-05-19T17:41:11.160Z,2.40
2023-05-19T17:44:53.179Z,2.78
2023-05-19T17:48:36.813Z,2.53
2023-05-19T17:52:20.233Z,2.60
2023-05-19T17:56:03.933Z,2.97
2023-05-19T17:59:46.188Z,2.83
2023-05-19T18:03:28.520Z,3.13
2023-05-19T18:07:10.814Z,3.00
2023-05-19T18:10:55.171Z,3.30
2023-05-19T18:14:37.541Z,2.70
2023-05-19T18:18:19.581Z,2.80
2023-05-19T18:22:01.774Z,2.60
2023-05-19T18:25:50.617Z,2.67
2023-05-19T18:29:34.199Z,2.72
2023-05-19T18:33:16.396Z,2.95
2023-05-19T18:36:58.364Z,2.97
2023-05-19T18:40:43.659Z,2.65
2023-05-19T18:44:25.862Z,2.70
2023-05-19T18:48:08.202Z,2.95
2023-05-19T18:51:50.246Z,2.80
2023-05-19T18:55:32.264Z,2.58
2023-05-19T18:59:14.320Z,2.40
2023-05-19T19:02:56.320Z,2.65
2023-05-19T19:06:38.352Z,2.50
2023-05-19T19:10:20.468Z,2.90
2023-05-19T19:14:02.493Z,2.50
2023-05-19T19:17:45.316Z,2.38
2023-05-19T19:21:27.396Z,2.60
2023-05-19T19:25:09.786Z,2.63
2023-05-19T19:28:51.794Z,2.38
2023-05-19T19:32:33.819Z,2.40
2023-05-19T19:36:16.205Z,2.20
2023-05-19T19:39:58.169Z,2.53
2023-05-19T19:43:40.199Z,2.50
2023-05-19T19:47:22.354Z,2.28
2023-05-19T19:51:04.451Z,2.30
2023-05-19T19:54:46.418Z,2.20
2023-05-19T19:58:29.408Z,2.35
2023-05-19T20:02:11.645Z,2.40
2023-05-19T20:05:57.100Z,2.70
2023-05-19T20:09:39.492Z,2.40
2023-05-19T20:13:21.535Z,2.42
2023-05-19T20:17:03.781Z,2.50
2023-05-19T20:20:45.850Z,2.40
2023-05-19T20:24:27.848Z,2.60
2023-05-19T20:28:09.970Z,3.00
2023-05-19T20:31:51.981Z,2.42
2023-05-19T20:35:34.200Z,2.45
2023-05-19T20:39:16.597Z,2.85
2023-05-19T20:42:58.640Z,2.50
2023-05-19T20:46:40.720Z,3.20
2023-05-19T20:50:22.766Z,3.13
2023-05-19T20:54:05.317Z,3.45
2023-05-19T20:57:47.295Z,4.50
2023-05-19T21:01:30.055Z,3.38
2023-05-19T21:05:12.225Z,3.63
2023-05-19T21:08:54.357Z,3.60
2023-05-19T21:12:36.419Z,3.60
2023-05-19T21:16:18.465Z,3.22
2023-05-19T21:20:01.209Z,3.72
2023-05-19T21:23:43.193Z,3.90
2023-05-19T21:27:25.258Z,4.10
2023-05-19T21:31:07.266Z,3.75
2023-05-19T21:34:49.401Z,3.20
2023-05-19T21:38:31.440Z,3.20
2023-05-19T21:42:13.976Z,3.33
2023-05-19T21:45:56.091Z,3.20
2023-05-19T21:49:40.072Z,3.75
2023-05-19T21:53:22.323Z,3.45
2023-05-19T21:57:04.473Z,3.88
2023-05-19T22:00:50.149Z,3.75
2023-05-19T22:04:32.336Z,3.67
2023-05-19T22:08:15.432Z,4.07
2023-05-19T22:11:57.439Z,3.97
2023-05-19T22:15:39.661Z,4.25
2023-05-19T22:19:21.664Z,4.80
2023-05-19T22:23:04.508Z,4.28
2023-05-19T22:26:47.369Z,4.22
2023-05-19T22:30:29.404Z,4.10
2023-05-19T22:34:12.897Z,4.10
2023-05-19T22:37:54.909Z,4.35
2023-05-19T22:41:36.875Z,3.45
2023-05-19T22:45:19.034Z,3.80
2023-05-19T22:49:01.098Z,4.30
2023-05-19T22:52:43.068Z,4.80
2023-05-19T22:56:27.604Z,4.35
2023-05-19T23:00:10.249Z,4.25
2023-05-19T23:03:52.357Z,4.65
2023-05-19T23:07:34.438Z,4.70
2023-05-19T23:11:16.452Z,5.15
2023-05-19T23:14:58.626Z,5.50
2023-05-19T23:18:40.982Z,5.43
2023-05-19T23:22:25.074Z,5.78
2023-05-19T23:26:07.030Z,5.57
2023-05-19T23:29:51.460Z,5.22
2023-05-19T23:33:33.478Z,5.20
2023-05-19T23:37:15.528Z,4.90
2023-05-19T23:40:57.492Z,5.45
2023-05-19T23:44:39.405Z,5.43
2023-05-19T23:48:21.303Z,5.97
2023-05-19T23:52:03.300Z,5.85
2023-05-19T23:55:45.335Z,6.00
2023-05-19T23:59:27.223Z,6.07
